Time;durP1;ratioP1;P1;durP2;ratioP2;P2;SDS_P1;SDS_P2;PMS_P1;PMS_P2;Temp;Humidity;BMP_temperature;BMP_pressure;BME280_temperature;BME280_humidity;BME280_pressure;Samples;Min_cycle;Max_cycle;Signal;HPM_P1;HPM_P2
2023/10/20 00:02:25;;;;;;;12.63;9.37;;;;;;;12.27;97.79;94226.25;5101581;28;20240;-45
2023/10/20 00:04:52;;;;;;;13.17;9.70;;;;;;;12.24;97.90;94226.56;5090995;28;20229;-46
2023/10/20 00:07:21;;;;;;;14.63;10.43;;;;;;;12.23;97.65;94214.69;5090172;28;20186;-44
2023/10/20 00:09:49;;;;;;;15.50;9.23;;;;;;;12.22;98.11;94218.22;5090533;28;20285;-44
2023/10/20 00:12:16;;;;;;;10.67;9.50;;;;;;;12.21;97.89;94212.28;5090104;28;20190;-42
2023/10/20 00:14:43;;;;;;;12.27;8.87;;;;;;;12.20;98.22;94210.69;5090781;28;20258;-45
2023/10/20 00:17:10;;;;;;;10.93;9.13;;;;;;;12.19;98.05;94196.28;5090354;28;20619;-46
2023/10/20 00:19:36;;;;;;;15.00;9.47;;;;;;;12.01;98.14;94175.91;5110687;28;20576;-44
2023/10/20 00:22:03;;;;;;;11.20;9.07;;;;;;;12.18;98.29;94212.63;5110227;28;20204;-44
2023/10/20 00:24:31;;;;;;;11.10;8.77;;;;;;;12.21;98.15;94204.59;5110314;28;20234;-44
2023/10/20 00:26:58;;;;;;;11.90;9.30;;;;;;;12.21;97.98;94204.59;5109960;28;20275;-43
2023/10/20 00:29:25;;;;;;;10.10;8.73;;;;;;;12.23;97.84;94199.31;5110237;28;20193;-45
2023/10/20 00:31:52;;;;;;;10.30;9.17;;;;;;;12.22;97.87;94190.84;5109906;28;20288;-44
2023/10/20 00:34:19;;;;;;;14.07;9.93;;;;;;;12.23;97.72;94187.31;5108150;28;20185;-44
2023/10/20 00:36:45;;;;;;;10.07;8.77;;;;;;;12.21;98.04;94190.97;5109883;28;20192;-44
2023/10/20 00:39:13;;;;;;;11.60;9.03;;;;;;;12.18;97.92;94188.75;5109999;28;20212;-44
2023/10/20 00:41:42;;;;;;;11.30;9.00;;;;;;;12.16;97.65;94183.75;5110419;27;20709;-44
2023/10/20 00:44:10;;;;;;;12.77;9.27;;;;;;;12.14;98.28;94185.69;5110531;28;20217;-44
2023/10/20 00:46:37;;;;;;;10.33;9.23;;;;;;;12.11;98.26;94183.44;5111714;28;20220;-48
2023/10/20 00:49:04;;;;;;;10.70;8.67;;;;;;;12.09;98.28;94180.25;5116458;28;20189;-44
2023/10/20 00:51:30;;;;;;;11.50;9.33;;;;;;;12.04;98.60;94167.88;5116479;28;20322;-44
2023/10/20 00:54:00;;;;;;;10.53;9.10;;;;;;;12.03;98.49;94181.66;5110000;28;20185;-44
2023/10/20 00:56:28;;;;;;;10.93;9.70;;;;;;;12.00;98.71;94189.69;5110147;28;20276;-44
2023/10/20 00:58:57;;;;;;;10.47;9.17;;;;;;;12.02;98.71;94185.19;5109659;28;20195;-44
2023/10/20 01:01:26;;;;;;;9.80;8.33;;;;;;;12.03;99.24;94184.22;5101940;28;20186;-43
2023/10/20 01:03:53;;;;;;;11.37;9.10;;;;;;;11.98;99.28;94190.81;5089664;28;20221;-44
2023/10/20 01:06:20;;;;;;;10.60;9.37;;;;;;;11.98;99.23;94185.69;5089437;28;20589;-43
2023/10/20 01:08:47;;;;;;;16.23;9.80;;;;;;;11.95;99.27;94184.22;5089697;28;20208;-43
2023/10/20 01:11:14;;;;;;;11.13;9.00;;;;;;;11.89;99.31;94177.19;5089429;28;20549;-45
2023/10/20 01:13:40;;;;;;;10.70;8.90;;;;;;;11.89;99.48;94184.06;5089581;28;20247;-44
2023/10/20 01:16:08;;;;;;;10.87;8.87;;;;;;;11.87;99.57;94181.66;5089526;28;20190;-43
2023/10/20 01:18:35;;;;;;;10.10;8.97;;;;;;;11.84;99.51;94179.41;5089421;28;20194;-44
2023/10/20 01:21:02;;;;;;;13.07;9.37;;;;;;;11.80;99.69;94167.84;5089490;28;20190;-44
2023/10/20 01:23:29;;;;;;;10.37;8.80;;;;;;;11.81;99.80;94179.69;5089267;28;20300;-44
2023/10/20 01:25:57;;;;;;;11.13;9.87;;;;;;;11.75;99.90;94160.66;5089312;28;20186;-45
2023/10/20 01:28:24;;;;;;;12.73;9.60;;;;;;;11.76;99.95;94164.81;5089178;28;20192;-44
2023/10/20 01:30:51;;;;;;;13.57;9.40;;;;;;;11.71;99.84;94150.88;5089624;28;20243;-44
2023/10/20 01:33:18;;;;;;;11.87;9.70;;;;;;;11.70;99.96;94165.44;5089808;28;20185;-44
2023/10/20 01:35:45;;;;;;;10.70;8.87;;;;;;;11.71;100.00;94150.88;5089185;28;20182;-44
2023/10/20 01:38:11;;;;;;;10.83;9.40;;;;;;;11.67;100.00;94150.38;5089238;28;20227;-44
2023/10/20 01:40:39;;;;;;;10.70;9.00;;;;;;;11.65;100.00;94149.72;5089515;28;20273;-45
2023/10/20 01:43:08;;;;;;;12.00;9.17;;;;;;;11.64;100.00;94139.66;5089356;28;20265;-45
2023/10/20 01:45:34;;;;;;;9.50;8.40;;;;;;;11.63;100.00;94133.72;5090669;28;20247;-44
2023/10/20 01:48:01;;;;;;;11.07;8.93;;;;;;;11.62;100.00;94132.13;5090285;28;20208;-44
2023/10/20 01:50:28;;;;;;;10.60;9.50;;;;;;;11.64;100.00;94137.88;5089430;28;20633;-43
2023/10/20 01:52:55;;;;;;;11.17;9.00;;;;;;;11.63;100.00;94136.28;5088987;28;20186;-43
2023/10/20 01:55:22;;;;;;;16.30;9.67;;;;;;;11.63;100.00;94148.28;5089044;28;20266;-44
2023/10/20 01:57:48;;;;;;;10.93;9.37;;;;;;;11.64;100.00;94147.34;5089305;28;20237;-43
2023/10/20 02:00:17;;;;;;;10.90;8.97;;;;;;;11.61;100.00;94148.44;5089198;28;20254;-44
2023/10/20 02:02:44;;;;;;;11.93;8.37;;;;;;;11.56;100.00;94156.59;5088880;28;20653;-45
2023/10/20 02:05:12;;;;;;;10.60;8.80;;;;;;;11.55;100.00;94160.13;5089237;28;20297;-43
2023/10/20 02:07:39;;;;;;;11.80;8.90;;;;;;;11.55;100.00;94156.75;5088847;28;20619;-45
2023/10/20 02:10:07;;;;;;;9.70;8.60;;;;;;;11.53;100.00;94158.69;5089248;28;20240;-45
2023/10/20 02:12:34;;;;;;;13.70;9.83;;;;;;;11.51;100.00;94163.94;5092247;28;20276;-44
2023/10/20 02:15:00;;;;;;;11.10;9.17;;;;;;;11.50;100.00;94159.78;5093176;28;20182;-45
2023/10/20 02:17:28;;;;;;;10.37;9.37;;;;;;;11.44;100.00;94147.63;5092423;28;20220;-44
2023/10/20 02:19:55;;;;;;;11.40;9.13;;;;;;;11.44;100.00;94139.94;5103852;28;20704;-42
2023/10/20 02:22:22;;;;;;;11.47;9.33;;;;;;;11.42;100.00;94131.59;5112566;28;20191;-49
2023/10/20 02:24:49;;;;;;;9.83;8.83;;;;;;;11.39;100.00;94142.16;5112960;27;20216;-42
2023/10/20 02:27:16;;;;;;;10.87;9.13;;;;;;;11.38;100.00;94147.44;5112987;28;20181;-45
2023/10/20 02:29:43;;;;;;;13.10;9.07;;;;;;;11.38;100.00;94158.47;5113228;28;20189;-44
2023/10/20 02:32:12;;;;;;;11.30;9.17;;;;;;;11.37;100.00;94153.50;5112742;28;20287;-45
2023/10/20 02:34:40;;;;;;;12.23;9.43;;;;;;;11.35;100.00;94156.22;5112169;28;20192;-44
2023/10/20 02:37:07;;;;;;;13.67;9.33;;;;;;;11.24;100.00;94144.50;5112542;27;20200;-43
2023/10/20 02:39:34;;;;;;;14.60;8.73;;;;;;;11.25;100.00;94153.78;5112232;28;20199;-44
2023/10/20 02:42:01;;;;;;;9.17;8.27;;;;;;;11.23;100.00;94163.41;5112361;28;20243;-44
2023/10/20 02:44:27;;;;;;;9.10;8.20;;;;;;;11.19;100.00;94158.75;5111954;28;20224;-44
2023/10/20 02:46:54;;;;;;;13.47;10.10;;;;;;;11.15;100.00;94158.25;5112423;28;20189;-44
2023/10/20 02:49:21;;;;;;;14.37;9.60;;;;;;;11.12;100.00;94145.75;5111202;28;20184;-44
2023/10/20 02:51:49;;;;;;;12.83;9.37;;;;;;;11.10;100.00;94152.00;5112151;28;20544;-44
2023/10/20 02:54:17;;;;;;;11.10;9.20;;;;;;;11.08;100.00;94148.78;5111933;28;20181;-43
2023/10/20 02:56:44;;;;;;;11.00;9.40;;;;;;;11.05;100.00;94147.31;5110543;28;20192;-45
2023/10/20 02:59:12;;;;;;;14.00;9.63;;;;;;;11.03;100.00;94150.03;5092024;28;20292;-45
2023/10/20 03:01:39;;;;;;;12.17;9.63;;;;;;;11.01;100.00;94146.00;5091481;28;20194;-44
2023/10/20 03:04:07;;;;;;;14.43;9.67;;;;;;;10.99;100.00;94142.81;5091711;28;20287;-43
2023/10/20 03:06:34;;;;;;;11.53;8.63;;;;;;;10.91;100.00;94127.44;5091369;28;20278;-44
2023/10/20 03:09:03;;;;;;;11.30;9.00;;;;;;;10.93;100.00;94131.44;5091706;28;20661;-44
2023/10/20 03:11:29;;;;;;;10.27;8.43;;;;;;;10.91;100.00;94135.09;5091455;28;20194;-45
2023/10/20 03:13:56;;;;;;;9.47;8.47;;;;;;;10.92;100.00;94136.69;5092249;28;20186;-44
2023/10/20 03:16:23;;;;;;;13.73;9.63;;;;;;;10.90;100.00;94136.88;5091485;28;20201;-44
2023/10/20 03:18:50;;;;;;;10.10;8.80;;;;;;;10.88;100.00;94131.13;5102033;28;20203;-43
2023/10/20 03:21:18;;;;;;;9.87;8.67;;;;;;;10.86;100.00;94127.09;5112028;28;20177;-44
2023/10/20 03:23:45;;;;;;;13.70;9.07;;;;;;;10.66;100.00;94103.50;5112389;28;20607;-43
2023/10/20 03:26:14;;;;;;;14.33;10.20;;;;;;;10.85;100.00;94139.09;5119075;28;20253;-53
2023/10/20 03:28:41;;;;;;;11.77;9.53;;;;;;;10.78;100.00;94122.72;5122270;28;20185;-46
2023/10/20 03:31:08;;;;;;;12.60;9.23;;;;;;;10.83;100.00;94133.31;5117493;28;20192;-43
2023/10/20 03:33:35;;;;;;;14.17;10.40;;;;;;;10.81;100.00;94132.66;5110845;28;20185;-44
2023/10/20 03:36:03;;;;;;;10.60;9.03;;;;;;;10.83;100.00;94132.50;5112097;28;20207;-46
2023/10/20 03:38:30;;;;;;;12.17;8.67;;;;;;;10.82;100.00;94126.59;5112677;28;20213;-44
2023/10/20 03:41:05;;;;;;;11.23;9.50;;;;;;;10.86;100.00;94132.22;5112067;28;20640;-44
2023/10/20 03:43:35;;;;;;;11.63;9.13;;;;;;;10.76;100.00;94107.56;5111194;28;20188;-43
2023/10/20 03:46:03;;;;;;;17.27;10.30;;;;;;;10.82;100.00;94120.69;5111292;28;20221;-44
2023/10/20 03:48:31;;;;;;;11.03;9.57;;;;;;;10.76;100.00;94112.66;5098833;28;20192;-45
2023/10/20 03:50:58;;;;;;;13.57;9.23;;;;;;;10.80;100.00;94111.41;5091373;28;20706;-43
2023/10/20 03:53:28;;;;;;;11.23;9.10;;;;;;;10.77;100.00;94104.03;5091758;28;20194;-44
2023/10/20 03:55:59;;;;;;;11.73;8.87;;;;;;;10.76;100.00;94101.63;5091707;28;20882;-44
2023/10/20 03:58:27;;;;;;;12.33;9.23;;;;;;;10.65;100.00;94089.91;5090740;28;20555;-43
2023/10/20 04:00:57;;;;;;;10.17;8.97;;;;;;;10.71;100.00;94099.53;5094777;28;20272;-43
2023/10/20 04:03:28;;;;;;;20.13;14.30;;;;;;;10.74;100.00;94101.78;5100185;28;20193;-44
2023/10/20 04:05:55;;;;;;;16.23;12.03;;;;;;;10.76;100.00;94105.00;5090768;28;20229;-44
2023/10/20 04:08:23;;;;;;;13.87;10.03;;;;;;;10.70;100.00;94095.38;5090280;28;20201;-44
2023/10/20 04:10:50;;;;;;;13.80;10.20;;;;;;;10.65;100.00;94086.56;5101040;28;20603;-44
2023/10/20 04:13:16;;;;;;;21.30;12.07;;;;;;;10.66;100.00;94106.06;5110088;28;20658;-44
2023/10/20 04:15:43;;;;;;;14.80;10.87;;;;;;;10.64;100.00;94093.44;5110803;28;20883;-44
2023/10/20 04:18:11;;;;;;;12.50;9.90;;;;;;;10.62;100.00;94108.13;5110533;28;20283;-45
2023/10/20 04:20:39;;;;;;;16.37;10.37;;;;;;;10.61;100.00;94111.63;5110735;28;20705;-44
2023/10/20 04:23:08;;;;;;;13.33;10.93;;;;;;;10.46;100.00;94097.81;5110706;28;20181;-43
2023/10/20 04:25:39;;;;;;;15.07;10.30;;;;;;;10.59;100.00;94131.44;5102825;28;20225;-43
2023/10/20 04:28:14;;;;;;;17.80;10.60;;;;;;;10.60;100.00;94125.38;5090250;28;20194;-44
2023/10/20 04:41:55;;;;;;;12.97;10.37;;;;;;;10.51;100.00;94124.53;5109236;28;20376;-43
2023/10/20 04:52:55;;;;;;;14.87;11.40;;;;;;;10.47;100.00;94113.00;4980883;28;20216;-45
2023/10/20 04:58:11;;;;;;;17.77;10.70;;;;;;;10.50;100.00;94117.00;4935005;29;20298;-45
2023/10/20 05:00:40;;;;;;;16.83;9.90;;;;;;;10.52;100.00;94117.66;4934456;29;20226;-44
2023/10/20 05:03:22;;;;;;;13.13;9.97;;;;;;;10.50;100.00;94114.47;4936529;29;20199;-44
2023/10/20 05:06:05;;;;;;;13.03;10.63;;;;;;;10.64;100.00;94107.97;4947286;29;20742;-45
2023/10/20 05:08:32;;;;;;;13.77;10.13;;;;;;;10.74;100.00;94124.00;4938699;29;20324;-45
2023/10/20 05:10:59;;;;;;;15.27;9.37;;;;;;;10.83;100.00;94124.84;4930976;29;20206;-44
2023/10/20 05:13:26;;;;;;;16.53;11.67;;;;;;;10.86;100.00;94124.53;4929927;29;20222;-44
2023/10/20 05:15:53;;;;;;;12.17;10.80;;;;;;;10.91;100.00;94124.88;4930270;29;20281;-44
2023/10/20 05:18:20;;;;;;;14.63;10.00;;;;;;;10.94;100.00;94116.91;4929702;29;20209;-45
2023/10/20 05:20:47;;;;;;;14.37;10.80;;;;;;;10.99;100.00;94120.59;4929934;29;20195;-45
2023/10/20 05:23:15;;;;;;;17.30;10.80;;;;;;;11.07;100.00;94135.19;4929681;29;20659;-45
2023/10/20 05:25:48;;;;;;;17.50;10.97;;;;;;;11.15;100.00;94140.31;4929805;29;20647;-44
2023/10/20 05:28:16;;;;;;;14.00;11.30;;;;;;;11.21;100.00;94149.94;4987032;28;20201;-44
2023/10/20 05:30:45;;;;;;;15.80;10.93;;;;;;;11.28;100.00;94153.50;5039491;28;20765;-43
2023/10/20 05:33:13;;;;;;;18.47;12.73;;;;;;;11.38;100.00;94158.47;5047001;28;20191;-44
2023/10/20 05:35:40;;;;;;;23.77;15.93;;;;;;;11.42;100.00;94164.09;5060210;28;20262;-44
2023/10/20 05:38:07;;;;;;;20.00;14.40;;;;;;;11.48;100.00;94166.00;5068986;28;20606;-44
2023/10/20 05:40:37;;;;;;;20.20;14.67;;;;;;;11.52;100.00;94162.97;5068867;28;20206;-43
2023/10/20 05:43:05;;;;;;;23.93;14.80;;;;;;;11.60;100.00;94171.66;5068992;28;20190;-45
2023/10/20 05:45:37;;;;;;;25.67;14.53;;;;;;;11.65;100.00;94170.22;5070646;28;20693;-44
2023/10/20 05:48:06;;;;;;;18.77;14.20;;;;;;;11.76;100.00;94169.94;5072761;28;20194;-45
2023/10/20 05:50:35;;;;;;;19.70;14.77;;;;;;;11.87;100.00;94173.16;5072606;28;20234;-45
2023/10/20 05:53:01;;;;;;;26.13;14.90;;;;;;;11.97;100.00;94169.50;5073242;28;20190;-44
2023/10/20 05:55:28;;;;;;;20.33;14.07;;;;;;;12.10;99.93;94163.13;5073076;28;20186;-45
2023/10/20 05:57:57;;;;;;;17.77;13.60;;;;;;;11.72;99.18;94080.75;5073178;28;20497;-50
2023/10/20 06:00:23;;;;;;;19.33;15.00;;;;;;;12.35;98.92;94157.03;5073356;28;20191;-45
2023/10/20 06:02:50;;;;;;;17.40;13.47;;;;;;;12.45;98.43;94144.03;5084917;28;20186;-44
2023/10/20 06:05:18;;;;;;;19.17;12.77;;;;;;;12.65;98.01;94147.00;5072993;28;20631;-44
2023/10/20 06:07:45;;;;;;;14.70;12.73;;;;;;;12.79;96.98;94161.75;5072873;28;20186;-46
2023/10/20 06:10:13;;;;;;;18.43;12.07;;;;;;;12.94;96.32;94170.34;5072926;28;20194;-45
2023/10/20 06:12:40;;;;;;;23.03;12.40;;;;;;;13.12;95.69;94167.56;5073122;28;20304;-45
2023/10/20 06:15:09;;;;;;;20.87;15.07;;;;;;;13.30;95.12;94157.91;5072381;28;20203;-44
2023/10/20 06:17:36;;;;;;;19.43;14.63;;;;;;;13.53;93.57;94160.53;5072436;28;20198;-45
2023/10/20 06:20:06;;;;;;;17.83;12.83;;;;;;;13.80;92.92;94166.94;5072687;28;20198;-44
2023/10/20 06:22:33;;;;;;;19.30;13.40;;;;;;;14.04;91.61;94160.06;5072471;28;20719;-45
2023/10/20 06:25:00;;;;;;;17.90;13.00;;;;;;;14.44;90.11;94153.78;5072395;28;20221;-44
2023/10/20 06:27:27;;;;;;;19.17;12.53;;;;;;;14.90;88.94;94171.72;5072192;28;20502;-44
2023/10/20 06:29:58;;;;;;;20.23;13.57;;;;;;;15.25;87.35;94172.00;5072298;28;20198;-44
2023/10/20 06:32:31;;;;;;;16.23;13.10;;;;;;;15.60;86.09;94165.28;5072114;28;20245;-44
2023/10/20 06:35:00;;;;;;;16.23;12.50;;;;;;;16.00;84.47;94170.88;5072382;28;20226;-44
2023/10/20 06:37:35;;;;;;;14.93;11.40;;;;;;;16.35;82.15;94161.47;5072045;28;20198;-45
2023/10/20 06:40:03;;;;;;;16.07;11.50;;;;;;;16.68;80.38;94163.50;5072490;28;20189;-44
2023/10/20 06:42:30;;;;;;;15.63;11.93;;;;;;;17.05;78.48;94158.03;5078726;28;20561;-44
2023/10/20 06:44:57;;;;;;;17.63;12.23;;;;;;;17.40;76.80;94159.75;5091706;28;20658;-45
2023/10/20 06:47:24;;;;;;;20.47;11.03;;;;;;;17.52;75.39;94165.97;5110635;28;20195;-45
2023/10/20 06:49:52;;;;;;;17.07;11.00;;;;;;;17.73;74.86;94162.47;5112744;28;20189;-46
2023/10/20 06:52:19;;;;;;;13.80;11.30;;;;;;;18.03;74.09;94174.13;5107144;28;20366;-45
2023/10/20 06:54:48;;;;;;;13.30;10.93;;;;;;;18.20;73.02;94171.97;5090751;28;20197;-44
2023/10/20 06:57:15;;;;;;;11.80;9.30;;;;;;;18.36;72.63;94168.19;5090540;28;20235;-44
2023/10/20 06:59:42;;;;;;;12.80;9.53;;;;;;;18.56;71.98;94152.66;5091098;28;20231;-44
2023/10/20 07:02:09;;;;;;;11.53;8.93;;;;;;;18.93;70.15;94174.56;5091068;28;20178;-43
2023/10/20 07:04:37;;;;;;;10.83;9.47;;;;;;;18.94;70.29;94178.75;5091055;28;20200;-44
2023/10/20 07:07:11;;;;;;;13.40;9.53;;;;;;;18.94;70.42;94177.97;5090941;28;20206;-43
2023/10/20 07:09:38;;;;;;;13.07;9.60;;;;;;;18.96;70.07;94171.59;5090919;28;20337;-44
2023/10/20 07:12:06;;;;;;;14.70;11.13;;;;;;;19.11;69.95;94171.34;5091061;28;20212;-43
2023/10/20 07:14:33;;;;;;;13.20;9.83;;;;;;;19.25;69.24;94166.94;5091625;28;20202;-47
2023/10/20 07:17:03;;;;;;;13.67;10.37;;;;;;;19.27;68.40;94168.31;5088644;28;20189;-45
2023/10/20 07:19:31;;;;;;;13.83;10.50;;;;;;;19.21;67.94;94171.75;5089955;28;20728;-45
2023/10/20 07:21:58;;;;;;;11.10;8.67;;;;;;;19.19;67.95;94165.94;5090415;28;20205;-44
2023/10/20 07:24:27;;;;;;;8.27;7.40;;;;;;;19.23;67.69;94177.50;5090274;28;20678;-44
2023/10/20 07:26:56;;;;;;;14.60;8.70;;;;;;;19.12;68.40;94166.97;5090326;28;20253;-45
2023/10/20 07:29:23;;;;;;;10.60;9.40;;;;;;;19.11;68.51;94171.34;5090685;28;20281;-44
2023/10/20 07:31:50;;;;;;;10.93;9.47;;;;;;;19.12;68.52;94172.16;5091385;28;20198;-45
2023/10/20 07:34:16;;;;;;;11.00;8.73;;;;;;;19.12;68.47;94172.94;5090543;28;20197;-45
2023/10/20 07:36:43;;;;;;;21.80;9.47;;;;;;;19.11;68.91;94179.13;5090758;28;20190;-44
2023/10/20 07:39:16;;;;;;;19.77;10.80;;;;;;;19.18;68.47;94186.91;5090444;28;20652;-48
2023/10/20 07:41:44;;;;;;;16.10;10.00;;;;;;;19.15;68.28;94187.31;5091270;28;20228;-43
2023/10/20 07:44:12;;;;;;;15.40;9.07;;;;;;;19.15;68.01;94180.31;5092903;28;20186;-44
2023/10/20 07:46:40;;;;;;;15.70;9.80;;;;;;;19.17;67.89;94180.94;5102517;28;20221;-45
2023/10/20 07:49:08;;;;;;;11.53;9.83;;;;;;;19.16;68.13;94171.53;5095132;28;20292;-44
2023/10/20 07:51:35;;;;;;;14.67;10.30;;;;;;;19.34;68.15;94178.66;5090593;28;20731;-45
2023/10/20 07:54:03;;;;;;;11.87;8.67;;;;;;;19.53;67.79;94177.81;5090662;28;20200;-46
2023/10/20 07:56:30;;;;;;;13.13;9.10;;;;;;;19.64;67.11;94176.41;5090398;28;20211;-44
2023/10/20 07:58:58;;;;;;;11.47;8.30;;;;;;;19.95;65.72;94183.47;5090947;28;20656;-46
2023/10/20 08:01:26;;;;;;;11.53;8.10;;;;;;;19.97;65.16;94188.44;5090462;28;20188;-45
2023/10/20 08:03:52;;;;;;;14.30;8.55;;;;;;;19.86;65.02;94174.31;5089689;28;20194;-45
2023/10/20 08:06:20;;;;;;;10.95;7.90;;;;;;;19.87;65.48;94185.50;5090974;28;20216;-44
2023/10/20 08:08:46;;;;;;;15.10;8.45;;;;;;;19.80;65.59;94178.53;5088876;28;20205;-45
2023/10/20 08:11:13;;;;;;;12.75;8.30;;;;;;;19.70;65.68;94179.97;5089578;28;20549;-44
2023/10/20 08:13:40;;;;;;;11.23;7.68;;;;;;;19.47;65.68;94154.50;5089800;28;20186;-45
2023/10/20 08:16:09;;;;;;;12.68;8.05;;;;;;;19.55;66.11;94173.22;5089588;28;20644;-45
2023/10/20 08:18:36;;;;;;;15.32;8.00;;;;;;;19.11;66.14;94103.97;5089468;28;20203;-43
2023/10/20 08:21:05;;;;;;;9.18;7.43;;;;;;;19.48;66.50;94177.63;5089657;28;20220;-44
2023/10/20 08:23:34;;;;;;;10.55;7.07;;;;;;;19.45;66.83;94185.03;5089450;28;20637;-45
2023/10/20 08:26:01;;;;;;;10.25;7.57;;;;;;;19.26;66.58;94147.81;5091953;28;20596;-45
2023/10/20 08:28:28;;;;;;;9.88;7.10;;;;;;;19.44;66.87;94183.44;5091076;28;20181;-44
2023/10/20 08:31:10;;;;;;;8.30;6.70;;;;;;;19.49;66.63;94181.03;5089394;28;20197;-45
2023/10/20 08:33:36;;;;;;;11.75;7.38;;;;;;;19.44;66.51;94170.47;5088115;28;20205;-44
2023/10/20 08:36:12;;;;;;;8.77;6.80;;;;;;;19.32;67.10;94156.56;5091047;28;20182;-45
2023/10/20 08:38:40;;;;;;;9.95;6.85;;;;;;;19.39;67.14;94159.94;5093370;28;20220;-45
2023/10/20 08:41:11;;;;;;;13.40;8.07;;;;;;;19.36;67.31;94161.13;5089603;28;20239;-44
2023/10/20 08:43:40;;;;;;;9.63;8.03;;;;;;;19.36;67.04;94145.56;5089467;28;20201;-43
2023/10/20 08:46:08;;;;;;;15.57;8.30;;;;;;;19.41;67.02;94150.94;5089558;28;20275;-43
2023/10/20 08:48:37;;;;;;;8.80;7.85;;;;;;;19.47;66.84;94149.31;5089289;28;20255;-43
2023/10/20 08:51:05;;;;;;;13.77;8.48;;;;;;;19.50;66.83;94157.47;5092383;28;20221;-46
2023/10/20 08:53:34;;;;;;;9.60;8.63;;;;;;;19.53;66.75;94159.66;5089781;28;20182;-44
2023/10/20 08:56:01;;;;;;;9.30;7.65;;;;;;;19.57;66.30;94154.06;5089493;28;20334;-45
2023/10/20 08:58:29;;;;;;;13.60;8.32;;;;;;;19.51;66.74;94146.09;5090363;28;20237;-45
2023/10/20 09:00:57;;;;;;;9.45;8.40;;;;;;;19.53;66.28;94156.28;5089695;28;20618;-45
2023/10/20 09:03:25;;;;;;;11.18;9.07;;;;;;;19.42;66.18;94142.13;5089544;28;20202;-45
2023/10/20 09:05:54;;;;;;;12.30;9.50;;;;;;;19.39;66.52;94152.94;5089311;28;20201;-45
2023/10/20 09:08:22;;;;;;;13.82;10.13;;;;;;;19.30;66.72;94149.78;5088777;28;20190;-45
2023/10/20 09:10:50;;;;;;;12.70;9.02;;;;;;;19.28;67.05;94149.19;5088400;28;20208;-46
2023/10/20 09:13:18;;;;;;;15.23;9.50;;;;;;;19.24;67.13;94148.00;5087477;28;20201;-45
2023/10/20 09:15:45;;;;;;;16.87;9.13;;;;;;;19.32;67.08;94157.34;5088853;28;20189;-45
2023/10/20 09:18:12;;;;;;;13.35;8.65;;;;;;;19.34;66.74;94137.19;5088931;28;20297;-44
2023/10/20 09:20:39;;;;;;;12.68;9.13;;;;;;;19.42;66.88;94129.16;5090424;28;20190;-45
2023/10/20 09:23:11;;;;;;;12.50;8.90;;;;;;;19.51;66.69;94135.72;5092834;28;20182;-45
2023/10/20 09:25:38;;;;;;;15.95;9.32;;;;;;;19.57;66.40;94133.31;5093238;28;20209;-45
2023/10/20 09:28:05;;;;;;;18.70;10.63;;;;;;;19.59;66.59;94126.13;5093120;28;20185;-45
2023/10/20 09:30:33;;;;;;;13.93;9.65;;;;;;;19.58;66.71;94120.13;5092937;28;20200;-46
2023/10/20 09:33:00;;;;;;;15.82;8.95;;;;;;;19.57;66.60;94113.38;5091134;28;20189;-46
2023/10/20 09:35:29;;;;;;;14.63;9.50;;;;;;;19.57;66.83;94097.81;5092787;28;20275;-45
2023/10/20 09:37:59;;;;;;;14.40;10.53;;;;;;;19.79;66.38;94109.47;5092849;28;20182;-43
2023/10/20 09:40:27;;;;;;;14.75;9.45;;;;;;;19.95;66.19;94100.41;5093007;28;20182;-46
2023/10/20 09:43:09;;;;;;;14.98;8.77;;;;;;;20.15;65.16;94105.44;5094153;28;20186;-44
2023/10/20 09:45:41;;;;;;;15.95;9.75;;;;;;;20.27;64.97;94090.78;5091795;28;20304;-45
2023/10/20 09:48:16;;;;;;;11.45;8.55;;;;;;;20.26;64.52;94104.78;5092165;28;20220;-43
2023/10/20 09:50:46;;;;;;;14.88;8.23;;;;;;;20.38;64.29;94102.28;5091259;28;20304;-45
2023/10/20 09:53:13;;;;;;;9.32;8.35;;;;;;;20.49;64.38;94091.22;5092605;28;20243;-44
2023/10/20 09:55:42;;;;;;;12.80;7.55;;;;;;;20.71;63.28;94096.03;5092047;28;20204;-44
2023/10/20 09:58:09;;;;;;;19.30;7.55;;;;;;;20.79;62.66;94090.53;5090429;28;20205;-44
2023/10/20 10:00:36;;;;;;;11.63;7.63;;;;;;;20.86;62.92;94096.47;5091961;28;20632;-45
2023/10/20 10:03:04;;;;;;;11.50;7.90;;;;;;;20.90;62.51;94083.84;5092082;28;20189;-48
2023/10/20 10:05:33;;;;;;;9.80;7.47;;;;;;;20.89;62.26;94080.44;5092407;28;20235;-44
2023/10/20 10:08:07;;;;;;;14.88;7.85;;;;;;;20.92;62.02;94072.22;5091783;28;20232;-46
2023/10/20 10:10:35;;;;;;;18.50;7.18;;;;;;;20.97;62.19;94061.94;5091717;28;20303;-45
2023/10/20 10:13:05;;;;;;;10.60;7.70;;;;;;;21.08;61.81;94068.25;5091896;28;20198;-45
2023/10/20 10:15:43;;;;;;;15.45;7.70;;;;;;;21.19;61.99;94069.31;5092193;28;20255;-45
2023/10/20 10:18:12;;;;;;;14.85;6.95;;;;;;;21.27;61.41;94066.41;5094058;28;20653;-45
2023/10/20 10:20:43;;;;;;;15.63;7.20;;;;;;;21.07;61.17;94021.66;5091724;28;20764;-45
2023/10/20 10:23:12;;;;;;;9.68;6.78;;;;;;;21.23;61.36;94057.47;5091060;28;20201;-44
2023/10/20 10:25:41;;;;;;;11.35;5.93;;;;;;;21.30;61.14;94055.59;5091538;28;20185;-45
2023/10/20 10:28:12;;;;;;;10.07;6.25;;;;;;;21.25;61.28;94039.84;5091459;28;20235;-45
2023/10/20 10:30:40;;;;;;;12.90;6.32;;;;;;;21.21;61.39;94041.28;5091445;28;20192;-44
2023/10/20 10:33:08;;;;;;;12.18;6.43;;;;;;;21.26;61.17;94044.03;5091566;28;20283;-45
2023/10/20 10:35:38;;;;;;;15.40;6.43;;;;;;;21.20;60.72;94030.09;5093093;28;20217;-45
2023/10/20 10:38:06;;;;;;;12.05;6.50;;;;;;;21.36;60.31;94041.72;5091782;28;20208;-47
2023/10/20 10:40:34;;;;;;;9.35;5.15;;;;;;;21.44;59.83;94054.41;5090680;28;20197;-44
2023/10/20 10:43:01;;;;;;;12.43;5.00;;;;;;;21.60;58.91;94047.03;5089582;28;20217;-45
2023/10/20 10:45:31;;;;;;;15.68;5.05;;;;;;;21.69;58.10;94043.09;5091329;28;20502;-43
2023/10/20 10:48:05;;;;;;;9.98;4.68;;;;;;;21.67;58.25;94039.91;5090734;28;20213;-45
2023/10/20 10:50:33;;;;;;;15.70;4.68;;;;;;;21.73;58.16;94032.00;5089737;28;20675;-44
2023/10/20 10:53:00;;;;;;;10.32;4.88;;;;;;;21.84;57.88;94040.06;5090871;28;20197;-44
2023/10/20 10:55:28;;;;;;;12.85;4.35;;;;;;;21.96;57.72;94038.28;5091365;28;20197;-45
2023/10/20 10:57:55;;;;;;;8.32;4.20;;;;;;;22.10;57.19;94034.44;5090950;28;20190;-45
2023/10/20 11:00:22;;;;;;;10.20;4.57;;;;;;;22.14;57.24;94025.19;5091460;28;20229;-45
2023/10/20 11:02:54;;;;;;;7.38;4.00;;;;;;;22.26;56.82;94028.59;5090978;28;20208;-46
2023/10/20 11:05:22;;;;;;;11.45;4.60;;;;;;;22.37;56.34;94028.84;5091881;28;20197;-49
2023/10/20 11:08:01;;;;;;;11.18;4.68;;;;;;;22.49;56.08;94017.38;5090824;28;20572;-46
2023/10/20 11:10:29;;;;;;;7.82;4.18;;;;;;;22.60;55.22;94030.66;5091277;28;20197;-46
2023/10/20 11:12:56;;;;;;;17.48;5.05;;;;;;;22.62;55.30;94013.75;5094689;28;20190;-46
2023/10/20 11:15:28;;;;;;;11.68;4.40;;;;;;;22.73;54.95;94017.38;5092430;28;20633;-45
2023/10/20 11:18:04;;;;;;;13.95;4.88;;;;;;;22.86;53.44;94013.72;5072497;28;20289;-46
2023/10/20 11:20:36;;;;;;;12.20;4.50;;;;;;;22.91;54.40;94014.63;5090527;28;20197;-45
2023/10/20 11:23:04;;;;;;;13.93;5.18;;;;;;;22.99;54.35;94022.09;5072491;28;20198;-45
2023/10/20 11:25:36;;;;;;;7.97;4.25;;;;;;;23.09;53.80;94011.06;5090533;28;20265;-45
2023/10/20 11:28:04;;;;;;;14.73;4.57;;;;;;;23.17;53.48;94004.69;5089964;28;20321;-46
2023/10/20 11:30:32;;;;;;;15.07;4.47;;;;;;;23.26;53.22;93998.09;5090065;28;20633;-45
2023/10/20 11:33:00;;;;;;;9.93;4.38;;;;;;;23.36;53.11;93993.06;5090113;28;20675;-46
2023/10/20 11:35:27;;;;;;;7.40;4.18;;;;;;;23.46;52.01;93998.47;5090318;28;20194;-44
2023/10/20 11:37:55;;;;;;;9.30;4.18;;;;;;;23.53;52.22;93998.28;5090271;28;20204;-44
2023/10/20 11:40:22;;;;;;;11.57;5.00;;;;;;;23.65;51.91;93987.84;5090064;28;20193;-45
2023/10/20 11:42:51;;;;;;;7.60;4.15;;;;;;;23.75;52.24;94004.47;5089838;28;20201;-45
2023/10/20 11:45:18;;;;;;;15.38;4.43;;;;;;;23.77;51.53;93997.19;5089566;28;20615;-45
2023/10/20 11:47:45;;;;;;;12.73;4.25;;;;;;;23.87;51.54;93991.31;5090689;28;20233;-45
2023/10/20 11:50:15;;;;;;;10.45;3.85;;;;;;;23.96;51.30;93992.53;5089762;28;20229;-44